createdAt,value
2023-02-05T00:01:05.958Z,99549.97
2023-02-05T00:05:12.549Z,99554.19
2023-02-05T00:09:15.945Z,99554.19
2023-02-05T00:13:20.404Z,99558.47
2023-02-05T00:17:23.799Z,99557.72
2023-02-05T00:21:26.821Z,99553.53
2023-02-05T00:25:30.116Z,99552.84
2023-02-05T00:29:34.340Z,99553.91
2023-02-05T00:33:37.748Z,99564.38
2023-02-05T00:37:40.969Z,99564.56
2023-02-05T00:41:44.015Z,99559.66
2023-02-05T00:45:49.227Z,99564.91
2023-02-05T00:49:52.089Z,99565.81
2023-02-05T00:53:55.611Z,99567.69
2023-02-05T00:57:58.923Z,99568.69
2023-02-05T01:02:03.771Z,99561.28
2023-02-05T01:06:06.757Z,99561.31
2023-02-05T01:10:11.100Z,99570.84
2023-02-05T01:18:24.021Z,99562.38
2023-02-05T01:22:27.406Z,99571.59
2023-02-05T01:26:30.240Z,99570.44
2023-02-05T01:30:33.722Z,99555.56
2023-02-05T01:34:38.748Z,99552.66
2023-02-05T01:38:42.127Z,99547.22
2023-02-05T01:42:45.531Z,99546.91
2023-02-05T01:46:50.036Z,99544.09
2023-02-05T01:50:58.589Z,99543.94
2023-02-05T01:55:02.824Z,99541.38
2023-02-05T01:59:12.067Z,99547.25
2023-02-05T02:03:16.524Z,99549.81
2023-02-05T02:07:24.438Z,99546.34
2023-02-05T02:11:30.013Z,99543.03
2023-02-05T02:15:33.752Z,99544.03
2023-02-05T02:19:44.656Z,99541.72
2023-02-05T02:24:03.788Z,99547.22
2023-02-05T02:28:13.550Z,99564.69
2023-02-05T02:32:23.088Z,99566.69
2023-02-05T02:36:31.789Z,99560.19
2023-02-05T02:40:41.721Z,99563.94
2023-02-05T02:44:50.574Z,99565.94
2023-02-05T02:48:58.217Z,99566.22
2023-02-05T02:53:05.028Z,99574.94
2023-02-05T02:57:11.062Z,99582.69
2023-02-05T03:01:18.751Z,99579.22
2023-02-05T03:05:25.002Z,99572.34
2023-02-05T03:09:34.008Z,99567.88
2023-02-05T03:13:37.335Z,99566.84
2023-02-05T03:17:43.994Z,99566.59
2023-02-05T03:21:52.250Z,99565.56
2023-02-05T03:25:55.356Z,99564.50
2023-02-05T03:29:58.870Z,99551.53
2023-02-05T03:34:14.181Z,99544.59
2023-02-05T03:38:40.854Z,99529.22
2023-02-05T03:43:06.740Z,99534.41
2023-02-05T03:47:17.889Z,99530.13
2023-02-05T03:51:30.396Z,99529.31
2023-02-05T03:55:37.380Z,99521.63
2023-02-05T03:59:40.996Z,99514.13
2023-02-05T04:03:44.017Z,99515.25
2023-02-05T04:07:48.488Z,99514.53
2023-02-05T04:11:51.515Z,99502.06
2023-02-05T04:15:54.756Z,99504.91
2023-02-05T04:19:57.799Z,99505.22
2023-02-05T04:24:02.151Z,99514.94
2023-02-05T04:28:05.730Z,99506.72
2023-02-05T04:32:09.195Z,99498.47
2023-02-05T04:36:12.372Z,99503.72
2023-02-05T04:40:17.466Z,99517.47
2023-02-05T04:44:20.726Z,99529.50
2023-02-05T04:48:24.232Z,99526.13
2023-02-05T04:52:27.221Z,99518.50
2023-02-05T04:56:32.178Z,99532.19
2023-02-05T05:00:36.590Z,99525.44
2023-02-05T05:04:49.367Z,99517.75
2023-02-05T05:08:52.339Z,99525.56
2023-02-05T05:12:57.308Z,99523.91
2023-02-05T05:17:00.285Z,99526.56
2023-02-05T05:21:05.942Z,99527.53
2023-02-05T05:25:09.127Z,99526.91
2023-02-05T05:29:14.792Z,99528.72
2023-02-05T05:33:18.211Z,99535.78
2023-02-05T05:37:21.388Z,99540.16
2023-02-05T05:41:43.123Z,99543.72
2023-02-05T05:45:48.561Z,99540.47
2023-02-05T05:49:51.545Z,99530.41
2023-02-05T05:53:55.357Z,99530.56
2023-02-05T05:57:58.278Z,99535.84
2023-02-05T06:02:04.324Z,99529.22
2023-02-05T06:06:09.393Z,99532.84
2023-02-05T06:10:12.716Z,99538.13
2023-02-05T06:14:15.748Z,99536.53
2023-02-05T06:18:22.772Z,99533.25
2023-02-05T06:22:26.898Z,99536.75
2023-02-05T06:26:30.498Z,99530.09
2023-02-05T06:30:33.994Z,99535.25
2023-02-05T06:34:38.868Z,99526.78
2023-02-05T06:38:41.969Z,99533.59
2023-02-05T06:42:45.239Z,99544.66
2023-02-05T06:46:48.181Z,99551.47
2023-02-05T06:50:52.656Z,99553.16
2023-02-05T06:54:58.218Z,99549.69
2023-02-05T06:59:01.385Z,99538.63
2023-02-05T07:03:04.783Z,99551.38
2023-02-05T07:07:09.818Z,99539.25
2023-02-05T07:11:13.071Z,99541.16
2023-02-05T07:15:16.115Z,99539.22
2023-02-05T07:19:19.324Z,99549.78
2023-02-05T07:23:23.828Z,99556.69
2023-02-05T07:27:26.807Z,99560.25
2023-02-05T07:31:30.190Z,99568.16
2023-02-05T07:35:35.575Z,99563.41
2023-02-05T07:39:40.778Z,99581.59
2023-02-05T07:43:43.986Z,99585.59
2023-02-05T07:47:50.089Z,99583.59
2023-02-05T07:51:53.449Z,99587.66
2023-02-05T07:55:58.673Z,99578.81
2023-02-05T08:00:01.900Z,99581.31
2023-02-05T08:04:05.165Z,99584.63
2023-02-05T08:08:08.884Z,99578.69
2023-02-05T08:12:13.880Z,99580.28
2023-02-05T08:16:17.541Z,99571.69
2023-02-05T08:20:21.399Z,99579.19
2023-02-05T08:24:24.636Z,99567.66
2023-02-05T08:28:30.282Z,99554.50
2023-02-05T08:32:33.468Z,99552.41
2023-02-05T08:36:36.605Z,99551.16
2023-02-05T08:40:41.459Z,99554.78
2023-02-05T08:44:48.756Z,99539.34
2023-02-05T08:48:52.116Z,99538.34
2023-02-05T08:52:55.262Z,99538.25
2023-02-05T08:56:58.220Z,99530.38
2023-02-05T09:01:04.978Z,99532.97
2023-02-05T09:05:11.558Z,99527.31
2023-02-05T09:09:15.681Z,99535.69
2023-02-05T09:13:19.071Z,99532.81
2023-02-05T09:17:23.797Z,99537.69
2023-02-05T09:21:27.933Z,99531.28
2023-02-05T09:25:34.361Z,99531.28
2023-02-05T09:29:37.690Z,99522.38
2023-02-05T09:33:44.798Z,99528.00
2023-02-05T09:37:48.993Z,99523.88
2023-02-05T09:41:57.958Z,99525.63
2023-02-05T09:46:05.929Z,99516.72
2023-02-05T09:50:17.188Z,99521.13
2023-02-05T09:54:29.021Z,99510.81
2023-02-05T09:58:36.266Z,99503.09
2023-02-05T10:02:50.203Z,99501.09
2023-02-05T10:07:32.933Z,99484.75
2023-02-05T10:11:42.276Z,99472.91
2023-02-05T10:16:04.489Z,99467.19
2023-02-05T10:20:22.388Z,99455.13
2023-02-05T10:24:52.010Z,99453.66
2023-02-05T10:29:15.505Z,99447.47
2023-02-05T10:33:20.410Z,99447.56
2023-02-05T10:37:31.735Z,99444.72
2023-02-05T10:41:40.000Z,99434.53
2023-02-05T10:45:44.451Z,99432.84
2023-02-05T10:49:55.227Z,99428.44
2023-02-05T10:53:59.658Z,99432.44
2023-02-05T10:58:23.979Z,99425.38
2023-02-05T11:02:33.960Z,99409.56
2023-02-05T11:06:40.905Z,99407.50
2023-02-05T11:10:44.297Z,99394.50
2023-02-05T11:14:57.650Z,99405.31
2023-02-05T11:19:02.868Z,99402.25
2023-02-05T11:23:20.846Z,99398.31
2023-02-05T11:27:32.816Z,99386.94
2023-02-05T11:31:38.045Z,99382.31
2023-02-05T11:35:41.303Z,99381.81
2023-02-05T11:39:47.428Z,99374.81
2023-02-05T11:43:53.692Z,99363.84
2023-02-05T11:47:59.121Z,99362.41
2023-02-05T11:52:10.296Z,99351.41
2023-02-05T11:56:24.257Z,99362.13
2023-02-05T12:00:29.403Z,99361.44
2023-02-05T12:04:41.589Z,99353.13
2023-02-05T12:08:49.600Z,99341.25
2023-02-05T12:13:03.848Z,99343.34
2023-02-05T12:17:25.398Z,99343.72
2023-02-05T12:21:44.646Z,99339.41
2023-02-05T12:26:00.067Z,99337.78
2023-02-05T12:30:22.477Z,99328.31
2023-02-05T12:34:33.546Z,99326.06
2023-02-05T12:38:53.432Z,99338.72
2023-02-05T12:43:03.188Z,99327.84
2023-02-05T12:47:19.105Z,99326.63
2023-02-05T12:51:38.758Z,99318.31
2023-02-05T12:55:56.059Z,99308.66
2023-02-05T13:00:04.692Z,99309.81
2023-02-05T13:04:15.204Z,99310.38
2023-02-05T13:08:27.166Z,99313.56
2023-02-05T13:12:37.258Z,99316.94
2023-02-05T13:16:46.022Z,99315.66
2023-02-05T13:21:11.628Z,99305.56
2023-02-05T13:25:40.961Z,99309.44
2023-02-05T13:29:52.330Z,99314.03
2023-02-05T13:33:57.906Z,99305.28
2023-02-05T13:38:24.145Z,99317.66
2023-02-05T13:42:50.164Z,99303.69
2023-02-05T13:47:20.205Z,99308.50
2023-02-05T13:51:43.499Z,99293.41
2023-02-05T13:56:18.931Z,99303.78
2023-02-05T14:00:22.906Z,99299.66
2023-02-05T14:04:32.906Z,99303.59
2023-02-05T14:08:39.805Z,99296.31
2023-02-05T14:12:43.006Z,99299.41
2023-02-05T14:16:49.699Z,99308.31
2023-02-05T14:20:55.240Z,99306.13
2023-02-05T14:24:58.562Z,99317.09
2023-02-05T14:29:01.698Z,99298.69
2023-02-05T14:33:07.221Z,99309.03
2023-02-05T14:37:27.361Z,99306.69
2023-02-05T14:41:33.996Z,99304.31
2023-02-05T14:45:44.951Z,99316.88
2023-02-05T14:49:49.851Z,99317.81
2023-02-05T14:54:00.219Z,99325.59
2023-02-05T14:58:07.217Z,99328.84
2023-02-05T15:02:43.678Z,99325.03
2023-02-05T15:06:47.765Z,99322.97
2023-02-05T15:10:58.149Z,99323.53
2023-02-05T15:15:01.775Z,99318.28
2023-02-05T15:19:07.898Z,99317.59
2023-02-05T15:23:30.072Z,99320.03
2023-02-05T15:27:43.652Z,99327.19
2023-02-05T15:31:49.619Z,99328.88
2023-02-05T15:35:52.925Z,99319.69
2023-02-05T15:39:58.349Z,99326.09
2023-02-05T15:44:04.660Z,99325.69
2023-02-05T15:48:18.616Z,99325.22
2023-02-05T15:52:23.760Z,99330.56
2023-02-05T15:56:32.409Z,99328.06
2023-02-05T16:00:41.812Z,99331.38
2023-02-05T16:04:45.137Z,99332.81
2023-02-05T16:08:49.274Z,99329.03
2023-02-05T16:13:00.246Z,99332.00
2023-02-05T16:17:09.651Z,99338.38
2023-02-05T16:21:21.579Z,99325.81
2023-02-05T16:25:42.039Z,99332.84
2023-02-05T16:29:51.055Z,99330.25
2023-02-05T16:34:00.122Z,99330.13
2023-02-05T16:38:10.121Z,99332.53
2023-02-05T16:42:30.135Z,99342.41
2023-02-05T16:46:34.326Z,99343.72
2023-02-05T16:50:44.826Z,99347.56
2023-02-05T16:54:47.942Z,99366.69
2023-02-05T16:58:53.592Z,99368.59
2023-02-05T17:02:59.412Z,99374.00
2023-02-05T17:07:07.318Z,99378.63
2023-02-05T17:11:34.409Z,99382.50
2023-02-05T17:15:40.421Z,99380.44
2023-02-05T17:19:44.501Z,99383.47
2023-02-05T17:23:50.928Z,99381.28
2023-02-05T17:27:54.519Z,99390.34
2023-02-05T17:31:58.473Z,99392.34
2023-02-05T17:36:01.708Z,99384.19
2023-02-05T17:40:07.769Z,99384.38
2023-02-05T17:44:12.791Z,99386.25
2023-02-05T17:48:17.628Z,99396.63
2023-02-05T17:52:20.844Z,99396.75
2023-02-05T17:56:26.301Z,99380.69
2023-02-05T18:00:32.177Z,99377.47
2023-02-05T18:04:35.312Z,99384.47
2023-02-05T18:08:38.468Z,99380.47
2023-02-05T18:12:43.126Z,99382.31
2023-02-05T18:16:46.784Z,99380.00
2023-02-05T18:20:49.643Z,99376.75
2023-02-05T18:24:52.836Z,99383.75
2023-02-05T18:28:57.114Z,99389.00
2023-02-05T18:33:00.425Z,99392.50
2023-02-05T18:37:03.519Z,99393.47
2023-02-05T18:41:09.394Z,99402.94
2023-02-05T18:45:14.385Z,99403.66
2023-02-05T18:49:17.665Z,99413.75
2023-02-05T18:53:20.806Z,99410.94
2023-02-05T18:57:23.886Z,99413.41
2023-02-05T19:01:29.515Z,99424.47
2023-02-05T19:05:32.975Z,99424.56
2023-02-05T19:09:36.170Z,99424.69
2023-02-05T19:13:39.894Z,99435.03
2023-02-05T19:17:44.788Z,99418.03
2023-02-05T19:21:49.097Z,99429.31
2023-02-05T19:25:52.400Z,99424.44
2023-02-05T19:29:55.603Z,99431.50
2023-02-05T19:34:00.995Z,99421.59
2023-02-05T19:38:04.165Z,99434.56
2023-02-05T19:42:09.485Z,99433.91
2023-02-05T19:46:12.873Z,99431.44
2023-02-05T19:50:19.173Z,99433.19
2023-02-05T19:54:23.583Z,99441.66
2023-02-05T19:58:26.570Z,99447.59
2023-02-05T20:02:32.108Z,99439.03
2023-02-05T20:06:37.352Z,99433.06
2023-02-05T20:10:40.637Z,99434.88
2023-02-05T20:14:43.597Z,99446.19
2023-02-05T20:18:48.674Z,99442.97
2023-02-05T20:22:54.590Z,99451.69
2023-02-05T20:26:58.869Z,99459.41
2023-02-05T20:31:19.890Z,99467.13
2023-02-05T20:35:23.184Z,99471.47
2023-02-05T20:39:30.488Z,99477.44
2023-02-05T20:43:33.581Z,99485.91
2023-02-05T20:47:39.630Z,99485.91
2023-02-05T20:51:43.588Z,99491.03
2023-02-05T20:55:51.648Z,99492.72
2023-02-05T20:59:55.710Z,99494.28
2023-02-05T21:04:00.718Z,99507.84
2023-02-05T21:08:04.290Z,99522.25
2023-02-05T21:12:09.307Z,99526.41
2023-02-05T21:16:14.679Z,99523.88
2023-02-05T21:20:18.836Z,99533.13
2023-02-05T21:24:21.912Z,99528.81
2023-02-05T21:28:26.533Z,99543.34
2023-02-05T21:32:30.712Z,99553.69
2023-02-05T21:36:34.808Z,99567.34
2023-02-05T21:40:39.566Z,99572.50
2023-02-05T21:44:49.476Z,99582.81
2023-02-05T21:48:54.110Z,99583.66
2023-02-05T21:52:57.465Z,99584.78
2023-02-05T21:57:00.626Z,99587.41
2023-02-05T22:01:16.913Z,99577.34
2023-02-05T22:05:19.954Z,99582.72
2023-02-05T22:09:23.640Z,99594.91
2023-02-05T22:13:26.851Z,99594.38
2023-02-05T22:17:31.503Z,99615.81
2023-02-05T22:21:36.862Z,99616.81
2023-02-05T22:25:40.225Z,99613.47
2023-02-05T22:35:07.998Z,99619.50
2023-02-05T22:39:11.983Z,99624.69
2023-02-05T22:43:14.954Z,99613.59
2023-02-05T22:47:18.164Z,99606.13
2023-02-05T22:51:24.701Z,99618.91
2023-02-05T22:55:27.844Z,99611.34
2023-02-05T22:59:31.114Z,99620.84
2023-02-05T23:03:34.214Z,99619.34
2023-02-05T23:07:39.102Z,99627.16
2023-02-05T23:11:42.753Z,99633.34
2023-02-05T23:15:46.015Z,99636.09
2023-02-05T23:19:52.341Z,99631.16
2023-02-05T23:23:57.531Z,99633.88
2023-02-05T23:28:00.832Z,99634.03
2023-02-05T23:32:05.153Z,99635.91
2023-02-05T23:36:09.559Z,99636.06
2023-02-05T23:40:14.627Z,99642.94
2023-02-05T23:44:19.672Z,99643.06
2023-02-05T23:48:22.666Z,99643.13
2023-02-05T23:52:26.176Z,99647.44
2023-02-05T23:56:30.716Z,99653.38
